Ana Sayfa
METAR-TAF:

METAR-TAF

Havaalanları :

Victoria, Mahé, Seyşel Adaları

Enlem: 04-40S, Boylam: 055-31E, yükseklik: 3 m

Güncel hava durumu gözlemi

Rapor saat 21:00 UTC de 41 dakika önce yapıldı.
Rüzgar güneydoğudan 6 kt
Sıcaklık 27°C
Nem 89%
Basınç 1010 hPa
Görüş mesafesi 10 km veya daha fazla
1200 ft yükseklikte parçalı bulutlu

METAR: FSIA 262100Z 13006KT 9999 R13///// SCT012 27/25 Q1010 NOSIG

Saat: 01:41 (21:41 UTC)

Tahmin

Rapor saat 17:01 UTC de 4 saat ve 40 dakika önce yapıldı.
Ayın 26'si saat 18 UTC'den ayın 27'si saat 18 UTC'ye kadar geçerli Tahmin
Rüzgar güney/güneydoğudan 10 kt
Görüş mesafesi 10 km veya daha fazla
2000 ft yükseklikte parçalı bulutlu
Olasılık 40% :
Geçici
ayın 27'si saat 00 UTC'den ayın 27'si saat 06 UTC'ye kadar
1800 ft yükseklikte parçalı çok bulutlu
hafif sağanak yağmurlar

TAF: FSIA 261701Z 2618/2718 15010KT 9999 SCT020 PROB40 TEMPO 2700/2706 -SHRA BKN018

4.000'den fazla havaalanı için hava durumu gözlemleri ve tahminleri (METAR ve TAF raporları).

Kullanılabilir istasyonlar harita üzerinde sarı ve kırmızı noktalarla gösterilir.

İstasyonun adını görmek için fareyi noktanın üzerinde gezdirin.

Sonrasında hava gözlem ve tahminlerini görmek için tıklayın.

Haritayı değiştirmek için: yaklaştırmak için siyah artı işaretli yeşil düğmeye ve uzaklaştırmak için de eksi işaretli düğmeye hızla tıklayın; bitişik haritalar için yeşil okları kullanın.


METAR-TAF: